Time;durP1;ratioP1;P1;durP2;ratioP2;P2;SDS_P1;SDS_P2;PMS_P1;PMS_P2;Temp;Humidity;BMP_temperature;BMP_pressure;BME280_temperature;BME280_humidity;BME280_pressure;Samples;Min_cycle;Max_cycle;Signal;HPM_P1;HPM_P2
2023/04/26 00:10:42;;;;;;;;;;;;;;;22.51;43.11;99606.88;41567973;28;19929;-78
2023/04/26 00:30:46;;;;;;;;;;;;;;;22.50;42.81;99633.41;41545820;28;19968;-76
2023/04/26 00:50:47;;;;;;;;;;;;;;;22.45;43.26;99648.81;41582758;28;19935;-78
2023/04/26 01:10:47;;;;;;;;;;;;;;;22.43;42.89;99659.50;41571713;28;20015;-79
2023/04/26 01:30:48;;;;;;;;;;;;;;;22.34;43.21;99668.28;41540050;28;19982;-80
2023/04/26 01:50:48;;;;;;;;;;;;;;;22.33;43.15;99685.06;41532593;28;19964;-78
2023/04/26 02:10:48;;;;;;;;;;;;;;;22.27;43.24;99691.75;41521199;28;19929;-79
2023/04/26 02:30:49;;;;;;;;;;;;;;;22.23;43.22;99706.19;41544333;28;19960;-81
2023/04/26 02:50:49;;;;;;;;;;;;;;;22.22;43.09;99709.81;41517185;28;19909;-79
2023/04/26 03:10:50;;;;;;;;;;;;;;;22.12;43.27;99740.63;41484761;28;19929;-76
2023/04/26 03:30:50;;;;;;;;;;;;;;;22.09;43.77;99776.00;41499078;28;19921;-78
2023/04/26 03:50:51;;;;;;;;;;;;;;;22.15;43.53;99786.00;41499907;28;19991;-80
2023/04/26 04:10:51;;;;;;;;;;;;;;;22.14;43.18;99801.97;41526442;28;19975;-82
2023/04/26 04:30:51;;;;;;;;;;;;;;;22.19;43.79;99800.59;41513444;28;19932;-77
2023/04/26 04:50:59;;;;;;;;;;;;;;;22.24;44.88;99850.28;41596637;28;19929;-84
2023/04/26 05:11:00;;;;;;;;;;;;;;;22.20;43.41;99881.38;41470995;28;20005;-78
2023/04/26 05:31:01;;;;;;;;;;;;;;;22.15;43.09;99896.75;41539293;28;19929;-79
2023/04/26 05:51:01;;;;;;;;;;;;;;;22.16;42.52;99889.69;41545951;28;19928;-79
2023/04/26 06:11:08;;;;;;;;;;;;;;;22.17;42.61;99917.72;41533680;28;19985;-80
2023/04/26 06:31:10;;;;;;;;;;;;;;;22.15;42.53;99941.56;41517197;28;19921;-79
2023/04/26 06:51:10;;;;;;;;;;;;;;;22.14;42.12;99929.38;41546300;28;19925;-83
2023/04/26 07:11:11;;;;;;;;;;;;;;;22.13;41.69;99932.13;41556671;28;19925;-81
2023/04/26 07:31:13;;;;;;;;;;;;;;;22.12;40.92;99965.59;41477992;28;20304;-82
2023/04/26 07:51:13;;;;;;;;;;;;;;;22.15;41.12;99977.66;41572874;28;19921;-81
2023/04/26 08:11:13;;;;;;;;;;;;;;;22.16;40.87;99997.78;41510483;28;19944;-79
2023/04/26 08:31:14;;;;;;;;;;;;;;;22.15;40.73;100010.13;41489682;28;19929;-78
2023/04/26 08:51:15;;;;;;;;;;;;;;;22.17;40.81;100020.56;41514262;28;20413;-81
2023/04/26 09:11:16;;;;;;;;;;;;;;;22.18;40.81;100022.22;41550680;28;19933;-79
2023/04/26 09:31:38;;;;;;;;;;;;;;;22.18;40.71;100020.41;41542005;28;19929;-80
2023/04/26 09:51:38;;;;;;;;;;;;;;;22.19;41.10;100027.38;41505900;28;19925;-79
2023/04/26 10:11:39;;;;;;;;;;;;;;;22.26;40.93;100018.91;41510898;28;19983;-80
2023/04/26 10:31:58;;;;;;;;;;;;;;;22.32;40.98;100023.66;41582130;28;20388;-80
2023/04/26 10:52:09;;;;;;;;;;;;;;;22.39;41.12;100016.91;41553702;28;19926;-80
2023/04/26 11:12:13;;;;;;;;;;;;;;;22.44;40.87;100006.78;41545823;28;19925;-78
2023/04/26 11:32:13;;;;;;;;;;;;;;;22.47;40.63;100019.69;41590792;28;19952;-79
2023/04/26 11:52:14;;;;;;;;;;;;;;;22.47;40.70;100024.97;41541139;28;19925;-79
2023/04/26 12:12:15;;;;;;;;;;;;;;;22.49;40.45;100038.84;41487324;28;20492;-78
2023/04/26 12:32:15;;;;;;;;;;;;;;;22.48;40.11;100042.44;41446665;28;19930;-78
2023/04/26 12:52:15;;;;;;;;;;;;;;;22.59;40.09;100044.13;41542147;28;19939;-78
2023/04/26 13:12:18;;;;;;;;;;;;;;;22.67;40.23;100046.13;41571252;28;19932;-80
2023/04/26 13:32:18;;;;;;;;;;;;;;;22.68;39.95;100063.63;41532452;28;19925;-81
2023/04/26 13:52:18;;;;;;;;;;;;;;;22.85;40.28;100070.84;41565524;28;19993;-81
2023/04/26 14:12:18;;;;;;;;;;;;;;;22.82;40.24;100101.97;41503535;28;19932;-81
2023/04/26 14:32:19;;;;;;;;;;;;;;;22.82;40.16;100105.44;41549675;28;19929;-80
2023/04/26 14:52:20;;;;;;;;;;;;;;;22.83;40.10;100116.84;41511087;28;19984;-81
2023/04/26 15:12:20;;;;;;;;;;;;;;;22.84;40.04;100129.09;41501066;28;20025;-82
2023/04/26 15:32:20;;;;;;;;;;;;;;;22.83;39.56;100130.03;41501833;28;19929;-78
2023/04/26 15:52:21;;;;;;;;;;;;;;;23.03;39.52;100137.03;41545378;28;19930;-80
2023/04/26 16:12:21;;;;;;;;;;;;;;;23.88;30.73;100122.41;41462222;28;19917;-78
2023/04/26 16:32:25;;;;;;;;;;;;;;;23.26;29.89;100147.34;41396076;28;21181;-73
2023/04/26 16:52:25;;;;;;;;;;;;;;;22.85;28.57;100165.03;41448899;28;19929;-75
2023/04/26 17:12:25;;;;;;;;;;;;;;;22.71;32.39;100196.13;41482972;28;19925;-76
2023/04/26 17:32:27;;;;;;;;;;;;;;;22.82;39.93;100195.19;41513959;28;19956;-75
2023/04/26 17:52:28;;;;;;;;;;;;;;;22.77;40.82;100221.16;41500355;28;20019;-74
2023/04/26 18:12:32;;;;;;;;;;;;;;;22.74;41.04;100253.13;41466115;28;19936;-81
2023/04/26 18:32:33;;;;;;;;;;;;;;;22.69;41.49;100261.44;41477872;28;19929;-74
2023/04/26 18:52:34;;;;;;;;;;;;;;;22.66;41.38;100296.00;41535512;28;19948;-73
2023/04/26 19:12:34;;;;;;;;;;;;;;;22.59;40.84;100315.13;41522731;28;19971;-73
2023/04/26 19:32:37;;;;;;;;;;;;;;;22.55;41.23;100314.53;41501616;28;19926;-72
2023/04/26 19:52:38;;;;;;;;;;;;;;;22.50;42.09;100320.22;41516704;28;19921;-71
2023/04/26 20:12:40;;;;;;;;;;;;;;;22.47;42.23;100335.47;41427342;28;19921;-74
2023/04/26 20:32:41;;;;;;;;;;;;;;;22.40;42.55;100353.63;41457891;28;19936;-71
2023/04/26 20:52:41;;;;;;;;;;;;;;;22.34;42.39;100368.09;41507149;28;19976;-72
2023/04/26 21:12:41;;;;;;;;;;;;;;;22.30;42.39;100379.03;41465295;28;19921;-72
2023/04/26 21:32:42;;;;;;;;;;;;;;;22.31;42.68;100394.72;41532682;28;19929;-71
2023/04/26 21:52:42;;;;;;;;;;;;;;;22.31;42.81;100407.91;41513333;28;20404;-71
2023/04/26 22:12:43;;;;;;;;;;;;;;;22.27;42.41;100411.78;41462351;28;19921;-70
2023/04/26 22:32:43;;;;;;;;;;;;;;;22.23;42.67;100428.84;41490894;28;20408;-71
2023/04/26 22:52:51;;;;;;;;;;;;;;;22.15;42.72;100450.53;41540185;28;19929;-71
2023/04/26 23:12:52;;;;;;;;;;;;;;;22.10;42.87;100452.72;41504373;28;19975;-70
2023/04/26 23:32:52;;;;;;;;;;;;;;;22.04;42.75;100480.41;41430741;28;19921;-71
2023/04/26 23:52:52;;;;;;;;;;;;;;;22.03;42.80;100480.53;41450645;28;20024;-71
